createdAt,value
2023-05-14T00:01:24.841Z,9.67
2023-05-14T00:03:51.334Z,9.90
2023-05-14T00:06:17.899Z,9.07
2023-05-14T00:08:44.305Z,9.38
2023-05-14T00:11:10.916Z,9.50
2023-05-14T00:13:37.549Z,9.10
2023-05-14T00:16:04.295Z,9.55
2023-05-14T00:18:30.877Z,9.73
2023-05-14T00:20:57.421Z,9.70
2023-05-14T00:23:24.066Z,10.10
2023-05-14T00:25:50.508Z,9.90
2023-05-14T00:28:16.952Z,9.68
2023-05-14T00:30:43.404Z,9.02
2023-05-14T00:33:09.894Z,8.68
2023-05-14T00:35:36.344Z,9.57
2023-05-14T00:38:03.431Z,9.07
2023-05-14T00:40:30.626Z,9.88
2023-05-14T00:42:57.264Z,9.15
2023-05-14T00:45:23.933Z,9.80
2023-05-14T00:47:51.136Z,9.10
2023-05-14T00:50:17.985Z,9.23
2023-05-14T00:52:45.004Z,9.73
2023-05-14T00:55:16.294Z,9.02
2023-05-14T00:57:43.022Z,8.80
2023-05-14T01:00:09.946Z,9.38
2023-05-14T01:02:36.504Z,9.23
2023-05-14T01:05:03.648Z,8.18
2023-05-14T01:08:02.023Z,9.18
2023-05-14T01:10:38.980Z,8.15
2023-05-14T01:13:24.691Z,9.25
2023-05-14T01:15:52.202Z,8.60
2023-05-14T01:18:19.613Z,9.15
2023-05-14T01:20:46.387Z,9.25
2023-05-14T01:23:12.772Z,8.68
2023-05-14T01:25:39.255Z,10.13
2023-05-14T01:28:11.430Z,8.60
2023-05-14T01:30:43.376Z,9.18
2023-05-14T01:33:16.318Z,9.10
2023-05-14T01:35:43.624Z,9.02
2023-05-14T01:38:13.937Z,8.93
2023-05-14T01:40:41.826Z,8.77
2023-05-14T01:43:08.735Z,8.68
2023-05-14T01:45:36.656Z,9.20
2023-05-14T01:48:04.989Z,9.07
2023-05-14T01:50:31.864Z,9.73
2023-05-14T01:52:58.437Z,8.57
2023-05-14T01:55:25.470Z,9.40
2023-05-14T01:57:52.729Z,9.13
2023-05-14T02:00:20.374Z,8.82
2023-05-14T02:02:46.828Z,9.50
2023-05-14T02:05:13.582Z,9.10
2023-05-14T02:07:40.314Z,9.23
2023-05-14T02:10:07.622Z,8.85
2023-05-14T02:12:34.094Z,9.40
2023-05-14T02:15:00.732Z,9.45
2023-05-14T02:17:27.246Z,10.63
2023-05-14T02:19:53.791Z,10.02
2023-05-14T02:22:20.283Z,10.38
2023-05-14T02:24:46.676Z,9.15
2023-05-14T02:27:13.456Z,9.30
2023-05-14T02:29:39.855Z,8.53
2023-05-14T02:32:06.637Z,8.68
2023-05-14T02:34:34.402Z,8.68
2023-05-14T02:37:01.090Z,9.68
2023-05-14T02:39:27.606Z,8.13
2023-05-14T02:41:53.978Z,8.87
2023-05-14T02:44:20.440Z,8.80
2023-05-14T02:46:47.456Z,8.55
2023-05-14T02:49:13.842Z,8.60
2023-05-14T02:51:40.373Z,9.15
2023-05-14T02:54:07.210Z,9.50
2023-05-14T02:56:33.603Z,9.27
2023-05-14T02:59:00.331Z,9.52
2023-05-14T03:01:27.124Z,8.95
2023-05-14T03:03:54.027Z,9.35
2023-05-14T03:06:20.504Z,9.37
2023-05-14T03:08:46.915Z,8.90
2023-05-14T03:11:13.445Z,9.20
2023-05-14T03:13:39.876Z,8.75
2023-05-14T03:16:06.581Z,9.68
2023-05-14T03:18:34.802Z,9.13
2023-05-14T03:21:01.418Z,8.75
2023-05-14T03:23:27.939Z,9.02
2023-05-14T03:25:54.375Z,9.18
2023-05-14T03:28:20.746Z,10.88
2023-05-14T03:30:47.294Z,9.07
2023-05-14T03:33:13.895Z,8.90
2023-05-14T03:35:40.340Z,9.27
2023-05-14T03:38:07.465Z,8.80
2023-05-14T03:40:34.018Z,9.35
2023-05-14T03:43:00.783Z,9.30
2023-05-14T03:45:28.663Z,9.25
2023-05-14T03:47:55.263Z,9.75
2023-05-14T03:50:22.005Z,9.85
2023-05-14T03:52:48.677Z,8.98
2023-05-14T03:55:15.025Z,9.27
2023-05-14T03:57:41.413Z,9.38
2023-05-14T04:00:08.715Z,8.68
2023-05-14T04:02:35.235Z,8.85
2023-05-14T04:05:01.703Z,8.07
2023-05-14T04:07:28.194Z,8.63
2023-05-14T04:09:54.560Z,9.20
2023-05-14T04:12:21.065Z,10.00
2023-05-14T04:14:47.542Z,8.85
2023-05-14T04:17:13.964Z,8.73
2023-05-14T04:19:40.539Z,8.70
2023-05-14T04:22:06.935Z,8.07
2023-05-14T04:24:33.393Z,8.68
2023-05-14T04:27:00.067Z,8.38
2023-05-14T04:29:26.533Z,8.20
2023-05-14T04:31:53.740Z,7.90
2023-05-14T04:34:20.265Z,7.90
2023-05-14T04:36:46.884Z,8.50
2023-05-14T04:39:13.301Z,8.23
2023-05-14T04:41:39.687Z,8.07
2023-05-14T04:44:06.937Z,7.37
2023-05-14T04:46:33.404Z,8.25
2023-05-14T04:48:59.864Z,8.30
2023-05-14T04:51:26.321Z,8.27
2023-05-14T04:53:52.703Z,7.47
2023-05-14T04:56:19.100Z,7.57
2023-05-14T04:58:45.498Z,6.95
2023-05-14T05:01:12.250Z,7.53
2023-05-14T05:03:38.739Z,7.18
2023-05-14T05:06:05.299Z,7.10
2023-05-14T05:08:31.839Z,6.60
2023-05-14T05:10:58.235Z,7.72
2023-05-14T05:13:24.734Z,7.28
2023-05-14T05:15:51.301Z,7.60
2023-05-14T05:18:17.818Z,7.38
2023-05-14T05:20:44.287Z,7.10
2023-05-14T05:23:10.924Z,7.78
2023-05-14T05:25:37.467Z,7.57
2023-05-14T05:28:04.096Z,7.18
2023-05-14T05:30:30.790Z,6.93
2023-05-14T05:32:57.680Z,8.20
2023-05-14T05:35:24.319Z,6.85
2023-05-14T05:37:50.947Z,7.22
2023-05-14T05:40:17.486Z,6.90
2023-05-14T05:42:43.875Z,7.53
2023-05-14T05:45:10.657Z,7.13
2023-05-14T05:47:37.178Z,6.78
2023-05-14T05:50:04.026Z,7.10
2023-05-14T05:52:30.709Z,6.82
2023-05-14T05:54:57.097Z,7.00
2023-05-14T05:57:26.201Z,6.13
2023-05-14T05:59:53.168Z,6.55
2023-05-14T06:02:19.988Z,6.60
2023-05-14T06:04:46.742Z,6.70
2023-05-14T06:07:13.122Z,6.93
2023-05-14T06:09:39.564Z,7.20
2023-05-14T06:12:06.385Z,6.72
2023-05-14T06:14:32.778Z,6.75
2023-05-14T06:16:59.257Z,6.68
2023-05-14T06:19:25.651Z,7.82
2023-05-14T06:21:52.007Z,6.53
2023-05-14T06:24:20.022Z,6.40
2023-05-14T06:26:46.512Z,6.15
2023-05-14T06:29:12.911Z,6.47
2023-05-14T06:31:39.555Z,7.18
2023-05-14T06:34:06.111Z,6.77
2023-05-14T06:36:32.503Z,7.80
2023-05-14T06:38:58.939Z,6.43
2023-05-14T06:41:26.169Z,6.25
2023-05-14T06:43:52.568Z,6.30
2023-05-14T06:46:18.970Z,6.60
2023-05-14T06:48:45.827Z,6.75
2023-05-14T06:51:13.285Z,6.20
2023-05-14T06:53:40.647Z,6.20
2023-05-14T06:56:07.796Z,6.10
2023-05-14T06:58:34.209Z,5.70
2023-05-14T07:01:00.738Z,6.55
2023-05-14T07:03:27.231Z,6.03
2023-05-14T07:05:53.647Z,6.70
2023-05-14T07:08:20.045Z,6.20
2023-05-14T07:10:46.457Z,6.10
2023-05-14T07:13:12.911Z,6.68
2023-05-14T07:15:39.349Z,5.75
2023-05-14T07:18:05.782Z,5.88
2023-05-14T07:20:32.212Z,5.80
2023-05-14T07:22:58.624Z,6.00
2023-05-14T07:25:25.091Z,5.70
2023-05-14T07:27:51.484Z,5.90
2023-05-14T07:30:18.305Z,6.03
2023-05-14T07:32:45.038Z,5.90
2023-05-14T07:35:11.837Z,5.97
2023-05-14T07:37:38.660Z,6.38
2023-05-14T07:40:05.652Z,5.47
2023-05-14T07:42:36.484Z,5.90
2023-05-14T07:45:04.668Z,6.50
2023-05-14T07:47:31.586Z,5.80
2023-05-14T07:49:59.670Z,6.10
2023-05-14T07:52:26.140Z,6.93
2023-05-14T07:54:52.895Z,7.07
2023-05-14T07:57:20.232Z,7.00
2023-05-14T07:59:47.864Z,6.47
2023-05-14T08:02:16.077Z,6.20
2023-05-14T08:04:42.592Z,6.70
2023-05-14T08:07:09.276Z,5.95
2023-05-14T08:09:35.848Z,7.13
2023-05-14T08:12:02.485Z,6.13
2023-05-14T08:14:28.857Z,7.10
2023-05-14T08:16:55.263Z,6.57
2023-05-14T08:19:21.817Z,7.15
2023-05-14T08:21:48.218Z,7.20
2023-05-14T08:24:15.033Z,6.97
2023-05-14T08:26:41.935Z,7.05
2023-05-14T08:29:10.015Z,7.22
2023-05-14T08:31:37.403Z,7.72
2023-05-14T08:34:03.817Z,7.68
2023-05-14T08:36:30.643Z,6.23
2023-05-14T08:38:57.123Z,6.63
2023-05-14T08:41:23.836Z,6.30
2023-05-14T08:44:14.082Z,6.63
2023-05-14T08:46:41.326Z,6.65
2023-05-14T08:49:42.658Z,6.47
2023-05-14T08:52:10.611Z,6.07
2023-05-14T08:54:37.308Z,6.85
2023-05-14T08:57:05.390Z,6.30
2023-05-14T08:59:31.812Z,6.07
2023-05-14T09:02:02.731Z,6.10
2023-05-14T09:04:31.592Z,5.82
2023-05-14T09:07:01.524Z,5.80
2023-05-14T09:09:28.536Z,5.28
2023-05-14T09:11:54.972Z,5.72
2023-05-14T09:14:23.870Z,5.30
2023-05-14T09:16:51.750Z,6.40
2023-05-14T09:19:19.600Z,5.60
2023-05-14T09:21:47.479Z,5.63
2023-05-14T09:24:21.471Z,5.43
2023-05-14T09:26:51.590Z,5.83
2023-05-14T09:29:18.287Z,5.82
2023-05-14T09:31:45.107Z,5.80
2023-05-14T09:34:12.213Z,6.20
2023-05-14T09:36:38.876Z,10.30
2023-05-14T09:39:05.808Z,8.70
2023-05-14T09:41:32.304Z,20.45
2023-05-14T09:43:58.758Z,7.50
2023-05-14T09:46:30.198Z,9.93
2023-05-14T09:48:56.988Z,7.38
2023-05-14T09:51:23.975Z,6.83
2023-05-14T09:53:53.227Z,8.05
2023-05-14T09:56:21.675Z,8.38
2023-05-14T09:58:48.621Z,5.55
2023-05-14T10:01:18.240Z,5.25
2023-05-14T10:03:45.026Z,6.00
2023-05-14T10:06:13.317Z,5.65
2023-05-14T10:08:43.825Z,5.80
2023-05-14T10:11:21.052Z,6.47
2023-05-14T10:13:57.039Z,5.80
2023-05-14T10:16:31.991Z,7.33
2023-05-14T10:19:08.009Z,6.55
2023-05-14T10:21:36.877Z,6.25
2023-05-14T10:24:07.638Z,5.25
2023-05-14T10:26:39.197Z,7.18
2023-05-14T10:29:06.430Z,6.30
2023-05-14T10:31:56.218Z,5.55
2023-05-14T10:34:32.595Z,6.32
2023-05-14T10:37:01.203Z,7.90
2023-05-14T10:39:52.293Z,8.68
2023-05-14T10:42:21.839Z,6.17
2023-05-14T10:44:55.462Z,5.28
2023-05-14T10:47:22.655Z,5.55
2023-05-14T10:49:49.490Z,6.93
2023-05-14T10:52:19.298Z,5.65
2023-05-14T10:54:56.411Z,4.90
2023-05-14T10:57:24.789Z,5.13
2023-05-14T10:59:57.112Z,5.43
2023-05-14T11:02:27.999Z,4.68
2023-05-14T11:05:15.727Z,5.00
2023-05-14T11:07:44.630Z,4.97
2023-05-14T11:10:18.942Z,4.50
2023-05-14T11:12:47.294Z,4.95
2023-05-14T11:15:26.031Z,4.20
2023-05-14T11:17:53.901Z,4.70
2023-05-14T11:20:21.285Z,4.53
2023-05-14T11:22:49.161Z,4.22
2023-05-14T11:25:15.812Z,4.53
2023-05-14T11:27:46.736Z,4.68
2023-05-14T11:30:18.397Z,4.70
2023-05-14T11:32:46.819Z,4.73
2023-05-14T11:35:14.037Z,4.15
2023-05-14T11:37:40.732Z,4.97
2023-05-14T11:40:11.996Z,4.90
2023-05-14T11:42:38.892Z,4.50
2023-05-14T11:45:06.222Z,4.50
2023-05-14T11:47:32.841Z,4.50
2023-05-14T11:50:01.041Z,4.47
2023-05-14T11:52:27.640Z,4.88
2023-05-14T11:54:54.068Z,4.75
2023-05-14T11:57:21.811Z,5.20
2023-05-14T11:59:49.715Z,5.20
2023-05-14T12:02:18.380Z,4.50
2023-05-14T12:04:49.503Z,4.78
2023-05-14T12:07:16.625Z,4.45
2023-05-14T12:09:51.493Z,3.77
2023-05-14T12:12:20.343Z,3.95
2023-05-14T12:14:47.652Z,4.20
2023-05-14T12:17:22.708Z,4.25
2023-05-14T12:19:51.271Z,4.47
2023-05-14T12:22:19.909Z,3.97
2023-05-14T12:24:54.470Z,4.35
2023-05-14T12:27:24.965Z,5.30
2023-05-14T12:30:09.133Z,4.20
2023-05-14T12:32:42.965Z,4.20
2023-05-14T12:35:10.181Z,4.40
2023-05-14T12:37:37.586Z,3.88
2023-05-14T12:40:08.934Z,4.30
2023-05-14T12:42:35.524Z,4.43
2023-05-14T12:45:05.378Z,4.30
2023-05-14T12:47:32.463Z,4.60
2023-05-14T12:49:59.002Z,4.00
2023-05-14T12:52:36.615Z,4.13
2023-05-14T12:55:05.314Z,4.32
2023-05-14T12:57:32.255Z,4.43
2023-05-14T12:59:58.894Z,4.23
2023-05-14T13:02:25.502Z,4.03
2023-05-14T13:04:51.920Z,5.10
2023-05-14T13:07:18.431Z,4.03
2023-05-14T13:09:44.887Z,5.07
2023-05-14T13:12:11.350Z,4.40
2023-05-14T13:14:37.760Z,4.47
2023-05-14T13:17:04.848Z,3.90
2023-05-14T13:19:31.704Z,4.35
2023-05-14T13:21:58.089Z,4.20
2023-05-14T13:24:25.067Z,4.73
2023-05-14T13:26:51.435Z,4.75
2023-05-14T13:29:17.802Z,4.07
2023-05-14T13:31:44.306Z,5.13
2023-05-14T13:34:10.733Z,4.47
2023-05-14T13:36:39.641Z,4.00
2023-05-14T13:39:07.263Z,4.30
2023-05-14T13:41:35.696Z,4.80
2023-05-14T13:44:02.124Z,3.90
2023-05-14T13:46:28.873Z,4.00
2023-05-14T13:48:55.343Z,4.50
2023-05-14T13:51:23.572Z,4.53
2023-05-14T13:53:50.167Z,3.67
2023-05-14T13:56:16.589Z,4.00
2023-05-14T13:58:43.057Z,4.28
2023-05-14T14:01:09.488Z,3.70
2023-05-14T14:03:35.955Z,3.85
2023-05-14T14:06:02.401Z,3.60
2023-05-14T14:08:29.026Z,4.30
2023-05-14T14:10:55.776Z,4.40
2023-05-14T14:13:22.737Z,3.93
2023-05-14T14:15:49.953Z,3.67
2023-05-14T14:18:16.552Z,5.10
2023-05-14T14:20:43.043Z,3.80
2023-05-14T14:23:09.523Z,4.20
2023-05-14T14:25:35.936Z,5.17
2023-05-14T14:28:02.406Z,4.28
2023-05-14T14:30:28.881Z,3.50
2023-05-14T14:32:55.760Z,3.28
2023-05-14T14:35:23.351Z,3.67
2023-05-14T14:37:52.217Z,3.43
2023-05-14T14:40:18.831Z,4.47
2023-05-14T14:42:45.559Z,3.85
2023-05-14T14:45:12.466Z,3.72
2023-05-14T14:47:42.736Z,4.22
2023-05-14T14:50:10.024Z,4.40
2023-05-14T14:52:36.663Z,3.65
2023-05-14T14:55:03.265Z,3.30
2023-05-14T14:57:29.641Z,3.40
2023-05-14T14:59:56.135Z,2.88
2023-05-14T15:02:22.884Z,4.03
2023-05-14T15:04:49.359Z,3.40
2023-05-14T15:07:20.232Z,3.55
2023-05-14T15:09:46.630Z,4.65
2023-05-14T15:12:14.286Z,3.65
2023-05-14T15:14:40.653Z,4.60
2023-05-14T15:17:07.249Z,4.35
2023-05-14T15:19:33.666Z,3.92
2023-05-14T15:22:00.124Z,4.03
2023-05-14T15:24:26.607Z,6.78
2023-05-14T15:26:53.644Z,5.60
2023-05-14T15:29:20.460Z,6.63
2023-05-14T15:31:47.086Z,5.25
2023-05-14T15:34:13.562Z,4.35
2023-05-14T15:36:40.101Z,4.13
2023-05-14T15:39:06.678Z,4.60
2023-05-14T15:41:34.413Z,4.43
2023-05-14T15:44:00.811Z,4.95
2023-05-14T15:46:27.351Z,4.95
2023-05-14T15:48:53.913Z,3.92
2023-05-14T15:51:20.358Z,5.00
2023-05-14T15:53:46.876Z,5.88
2023-05-14T15:56:13.274Z,4.72
2023-05-14T15:58:39.711Z,4.70
2023-05-14T16:01:06.120Z,4.63
2023-05-14T16:03:32.680Z,7.43
2023-05-14T16:05:59.686Z,4.70
2023-05-14T16:08:26.170Z,5.22
2023-05-14T16:10:52.646Z,5.35
2023-05-14T16:13:19.578Z,4.82
2023-05-14T16:15:46.513Z,4.67
2023-05-14T16:18:12.952Z,3.85
2023-05-14T16:20:39.340Z,4.18
2023-05-14T16:23:05.766Z,4.88
2023-05-14T16:25:32.204Z,4.78
2023-05-14T16:27:58.645Z,5.90
2023-05-14T16:30:25.312Z,5.53
2023-05-14T16:32:51.991Z,4.72
2023-05-14T16:35:18.535Z,4.32
2023-05-14T16:37:45.011Z,4.63
2023-05-14T16:40:12.164Z,4.37
2023-05-14T16:42:39.082Z,4.30
2023-05-14T16:45:06.280Z,5.20
2023-05-14T16:47:32.753Z,4.07
2023-05-14T16:49:59.171Z,4.32
2023-05-14T16:52:25.793Z,4.20
2023-05-14T16:54:52.196Z,3.90
2023-05-14T16:57:18.668Z,3.90
2023-05-14T16:59:45.202Z,3.92
2023-05-14T17:02:11.616Z,4.28
2023-05-14T17:04:41.966Z,4.13
2023-05-14T17:07:08.682Z,3.65
2023-05-14T17:09:35.773Z,4.00
2023-05-14T17:12:02.190Z,4.15
2023-05-14T17:14:28.596Z,4.28
2023-05-14T17:16:55.852Z,5.13
2023-05-14T17:19:22.540Z,5.13
2023-05-14T17:21:49.042Z,4.30
2023-05-14T17:24:15.800Z,5.30
2023-05-14T17:26:42.174Z,5.35
2023-05-14T17:29:08.532Z,5.20
2023-05-14T17:31:35.046Z,6.25
2023-05-14T17:34:01.515Z,6.00
2023-05-14T17:36:28.647Z,5.20
2023-05-14T17:38:55.179Z,6.55
2023-05-14T17:41:21.640Z,5.93
2023-05-14T17:43:48.101Z,5.68
2023-05-14T17:46:14.500Z,5.22
2023-05-14T17:48:40.956Z,6.53
2023-05-14T17:51:07.411Z,5.13
2023-05-14T17:53:33.823Z,5.53
2023-05-14T17:56:00.225Z,5.32
2023-05-14T17:58:26.789Z,5.38
2023-05-14T18:00:53.372Z,5.65
2023-05-14T18:03:20.711Z,5.65
2023-05-14T18:05:47.245Z,6.10
2023-05-14T18:08:14.476Z,5.03
2023-05-14T18:10:41.005Z,4.95
2023-05-14T18:13:07.511Z,5.55
2023-05-14T18:15:35.905Z,5.85
2023-05-14T18:18:02.492Z,6.53
2023-05-14T18:20:29.031Z,4.78
2023-05-14T18:22:55.548Z,5.90
2023-05-14T18:25:22.063Z,5.32
2023-05-14T18:27:48.609Z,5.53
2023-05-14T18:30:15.949Z,5.17
2023-05-14T18:32:44.686Z,4.95
2023-05-14T18:35:11.838Z,5.53
2023-05-14T18:37:38.560Z,5.25
2023-05-14T18:40:06.925Z,5.53
2023-05-14T18:42:34.143Z,5.60
2023-05-14T18:45:01.493Z,4.97
2023-05-14T18:47:28.163Z,5.07
2023-05-14T18:49:57.668Z,4.38
2023-05-14T18:52:24.538Z,4.40
2023-05-14T18:54:50.983Z,4.17
2023-05-14T18:57:17.436Z,4.30
2023-05-14T18:59:44.020Z,4.30
2023-05-14T19:02:10.836Z,4.82
2023-05-14T19:04:50.731Z,5.18
2023-05-14T19:07:18.860Z,4.70
2023-05-14T19:09:45.483Z,4.50
2023-05-14T19:12:12.355Z,4.88
2023-05-14T19:14:38.769Z,5.13
2023-05-14T19:17:05.767Z,5.20
2023-05-14T19:19:32.709Z,4.93
2023-05-14T19:21:59.111Z,4.72
2023-05-14T19:24:25.821Z,5.90
2023-05-14T19:26:52.394Z,6.30
2023-05-14T19:29:18.882Z,6.00
2023-05-14T19:31:45.366Z,5.77
2023-05-14T19:34:11.787Z,5.60
2023-05-14T19:36:38.250Z,5.90
2023-05-14T19:39:04.755Z,5.28
2023-05-14T19:41:31.546Z,4.60
2023-05-14T19:43:58.049Z,4.83
2023-05-14T19:46:24.584Z,4.32
2023-05-14T19:48:51.057Z,4.05
2023-05-14T19:51:17.429Z,4.63
2023-05-14T19:53:43.891Z,5.20
2023-05-14T19:56:10.474Z,5.30
2023-05-14T19:58:36.951Z,5.25
2023-05-14T20:01:04.319Z,5.65
2023-05-14T20:03:30.862Z,4.80
2023-05-14T20:05:57.962Z,5.30
2023-05-14T20:08:24.905Z,4.80
2023-05-14T20:10:51.457Z,5.15
2023-05-14T20:13:17.829Z,5.40
2023-05-14T20:15:44.242Z,5.72
2023-05-14T20:18:10.680Z,5.50
2023-05-14T20:20:37.375Z,5.60
2023-05-14T20:23:03.825Z,5.32
2023-05-14T20:25:32.572Z,5.15
2023-05-14T20:28:00.357Z,5.35
2023-05-14T20:30:27.593Z,5.45
2023-05-14T20:32:54.074Z,5.60
2023-05-14T20:35:20.532Z,5.85
2023-05-14T20:37:47.248Z,5.30
2023-05-14T20:40:13.787Z,5.45
2023-05-14T20:42:40.492Z,5.40
2023-05-14T20:45:07.338Z,5.37
2023-05-14T20:47:34.152Z,5.75
2023-05-14T20:50:01.247Z,5.78
2023-05-14T20:52:27.807Z,5.60
2023-05-14T20:54:54.258Z,5.43
2023-05-14T20:57:20.741Z,5.70
2023-05-14T20:59:47.560Z,5.10
2023-05-14T21:02:14.058Z,5.40
2023-05-14T21:04:41.034Z,5.25
2023-05-14T21:07:07.552Z,5.35
2023-05-14T21:09:33.985Z,5.40
2023-05-14T21:12:00.514Z,5.72
2023-05-14T21:14:26.891Z,5.80
2023-05-14T21:16:53.463Z,5.45
2023-05-14T21:19:20.072Z,5.55
2023-05-14T21:21:47.359Z,5.60
2023-05-14T21:24:13.898Z,6.15
2023-05-14T21:26:41.389Z,5.35
2023-05-14T21:29:07.804Z,5.60
2023-05-14T21:31:34.281Z,5.13
2023-05-14T21:34:00.802Z,6.03
2023-05-14T21:36:27.293Z,5.57
2023-05-14T21:38:53.885Z,5.68
2023-05-14T21:41:21.102Z,5.75
2023-05-14T21:43:47.588Z,5.40
2023-05-14T21:46:14.055Z,5.43
2023-05-14T21:48:40.577Z,5.43
2023-05-14T21:51:07.098Z,5.10
2023-05-14T21:53:34.640Z,5.30
2023-05-14T21:56:01.112Z,5.20
2023-05-14T21:58:27.724Z,5.50
2023-05-14T22:00:54.203Z,5.60
2023-05-14T22:03:20.831Z,5.65
2023-05-14T22:05:47.800Z,6.07
2023-05-14T22:08:14.298Z,5.90
2023-05-14T22:10:40.735Z,6.13
2023-05-14T22:13:07.115Z,6.22
2023-05-14T22:15:34.349Z,6.18
2023-05-14T22:18:00.931Z,6.55
2023-05-14T22:20:27.367Z,6.55
2023-05-14T22:22:53.953Z,6.00
2023-05-14T22:25:20.411Z,5.57
2023-05-14T22:27:46.814Z,6.50
2023-05-14T22:30:13.271Z,6.18
2023-05-14T22:32:39.732Z,6.40
2023-05-14T22:35:06.330Z,6.87
2023-05-14T22:37:32.722Z,6.63
2023-05-14T22:39:59.121Z,6.43
2023-05-14T22:42:27.186Z,6.78
2023-05-14T22:44:53.700Z,6.78
2023-05-14T22:47:20.217Z,6.87
2023-05-14T22:49:46.772Z,6.70
2023-05-14T22:52:13.171Z,6.88
2023-05-14T22:54:39.661Z,7.25
2023-05-14T22:57:06.621Z,6.75
2023-05-14T22:59:33.271Z,7.80
2023-05-14T23:01:59.743Z,7.60
2023-05-14T23:04:26.297Z,7.75
2023-05-14T23:06:52.843Z,7.85
2023-05-14T23:09:19.223Z,7.32
2023-05-14T23:11:46.184Z,7.73
2023-05-14T23:14:12.620Z,7.65
2023-05-14T23:16:39.441Z,7.43
2023-05-14T23:19:06.084Z,7.75
2023-05-14T23:21:33.018Z,7.95
2023-05-14T23:23:59.514Z,7.87
2023-05-14T23:26:26.082Z,8.05
2023-05-14T23:28:52.505Z,7.57
2023-05-14T23:31:18.973Z,7.65
2023-05-14T23:33:46.359Z,7.93
2023-05-14T23:36:12.957Z,8.47
2023-05-14T23:38:40.630Z,7.88
2023-05-14T23:41:07.102Z,7.95
2023-05-14T23:43:33.773Z,7.93
2023-05-14T23:46:00.920Z,8.02
2023-05-14T23:48:27.422Z,8.37
2023-05-14T23:50:53.832Z,7.88
2023-05-14T23:53:20.427Z,8.25
2023-05-14T23:55:46.957Z,7.97
2023-05-14T23:58:13.460Z,7.53
